DW3529 Weather Reports


Display with metric or nautical units.
time (UTC)temp
F
wind
direction
speed
MPH
gust
MPH
rain 1hr
in
rain 24hr
in
rain mn
in
humidity
%
barometer
mb
20200404210001 50 241 3.0 4.0 0.00 0.00 0.00 45 1011.6
20200404205001 50 159 2.0 3.0 0.00 0.00 0.00 42 1011.8
20200404204000 49 136 2.0 3.0 0.00 0.00 0.00 43 1012.0
20200404203000 49 192 5.0 7.0 0.00 0.00 0.00 43 1012.2
20200404200000 46 183 3.0 5.0 0.00 0.00 0.00 45 1012.9
20200404195000 47 171 3.0 6.0 0.00 0.00 0.00 42 1013.0
20200404193001 48 148 3.0 5.0 0.00 0.00 0.00 42 1013.1
20200404183001 43 136 2.0 3.0 0.00 0.00 0.00 45 1014.4
20200404182001 43 80 3.0 4.0 0.00 0.00 0.00 45 1014.6
20200404181000 43 92 2.0 2.0 0.00 0.00 0.00 46 1014.9
20200404180001 41 138 1.0 2.0 0.00 0.00 0.00 49 1015.1
20200404174000 40 86 2.0 2.0 0.00 0.00 0.00 48 1015.4
20200404173001 38 191 2.0 3.0 0.00 0.00 0.00 51 1015.7
20200404161001 36 189 4.0 5.0 0.00 0.00 0.00 46 1016.5
20200404160001 35 189 3.0 3.0 0.00 0.00 0.00 49 1016.5
20200404155000 35 137 1.0 1.0 0.00 0.00 0.00 49 1016.5
20200404153001 33 187 2.0 3.0 0.00 0.00 0.00 51 1016.8
20200404145000 29 272 1.0 3.0 0.00 0.00 0.00 56 1017.0
20200404144001 28 129 1.0 2.0 0.00 0.00 0.00 57 1017.2
20200404142001 27 144 1.0 1.0 0.00 0.00 0.00 60 1017.4
20200404140001 25 221 1.0 1.0 0.00 0.00 0.00 59 1017.4
20200404135001 26 0 0.0 0.0 0.00 0.00 0.00 59 1017.4
20200404134000 25 7 1.0 1.0 0.00 0.00 0.00 63 1017.4
20200404133001 24 0 0.0 0.0 0.00 0.00 0.00 66 1017.4
20200404132001 23 0 0.0 0.0 0.00 0.00 0.00 68 1017.4
20200404130001 20 0 0.0 0.0 0.00 0.00 0.00 71 1017.4
20200404124001 19 0 0.0 0.0 0.00 0.00 0.00 72 1017.3
20200404123001 19 39 1.0 1.0 0.00 0.00 0.00 71 1017.2
20200404121001 19 0 0.0 0.0 0.00 0.00 0.00 71 1017.3
20200404120001 19 0 0.0 0.0 0.00 0.00 0.00 71 1017.5
20200404115001 19 0 0.0 0.0 0.00 0.00 0.00 72 1017.5
20200404113000 19 280 1.0 1.0 0.00 0.00 0.00 72 1017.5
20200404112001 18 205 1.0 1.0 0.00 0.00 0.00 72 1017.6
20200404110001 19 0 0.0 0.0 0.00 0.00 0.00 71 1017.5
20200404103001 20 145 1.0 1.0 0.00 0.00 0.00 70 1017.7
20200404101001 20 102 1.0 1.0 0.00 0.00 0.00 69 1018.1
20200404100002 20 73 1.0 1.0 0.00 0.00 0.00 70 1018.1
20200404094001 20 117 1.0 2.0 0.00 0.00 0.00 68 1018.1
20200404093001 20 132 2.0 3.0 0.00 0.00 0.00 68 1018.2
20200404091000 21 129 3.0 5.0 0.00 0.00 0.00 66 1018.6
20200404085001 21 188 2.0 3.0 0.00 0.00 0.00 65 1018.9
20200404084001 22 155 3.0 4.0 0.00 0.00 0.00 65 1019.0
20200404083000 22 159 2.0 3.0 0.00 0.00 0.00 65 1019.3
20200404082000 22 164 3.0 4.0 0.00 0.00 0.00 66 1019.4
20200404080001 23 209 1.0 2.0 0.00 0.00 0.00 64 1019.7
20200404073000 24 151 4.0 7.0 0.00 0.00 0.00 63 1019.6
20200404071001 24 120 3.0 7.0 0.00 0.00 0.00 61 1019.7
20200404062001 26 157 3.0 7.0 0.00 0.00 0.00 60 1020.2
20200404060001 26 123 4.0 11.0 0.00 0.00 0.01 60 1019.9
20200404055001 27 119 5.0 17.0 0.00 0.00 0.01 60 1019.9
20200404054001 27 147 5.0 17.0 0.00 0.00 0.01 60 1019.7
20200404051001 29 123 8.0 12.0 0.00 0.00 0.01 68 1019.9
20200404050000 29 107 5.0 11.0 0.00 0.00 0.01 68 1019.8
20200404045000 29 131 5.0 16.0 0.00 0.00 0.01 69 1019.8
20200404043000 30 107 4.0 13.0 0.00 0.00 0.01 73 1019.6
20200404042002 30 99 6.0 12.0 0.00 0.00 0.01 74 1019.7
20200404041001 30 126 4.0 7.0 0.00 0.00 0.01 75 1019.7
20200404035001 30 121 3.0 9.0 0.00 0.00 0.01 74 1019.6
20200404034001 30 129 4.0 7.0 0.00 0.00 0.01 74 1019.7
20200404032000 30 143 2.0 4.0 0.00 0.00 0.01 73 1019.7
20200404025001 31 194 4.0 6.0 0.00 0.00 0.01 73 1019.5
20200404024000 30 133 1.0 1.0 0.00 0.00 0.01 74 1019.6
20200404023001 30 154 2.0 3.0 0.00 0.00 0.01 74 1019.4
20200404022001 30 170 1.0 1.0 0.00 0.00 0.01 74 1019.3
20200404020001 31 0 0.0 0.0 0.00 0.00 0.01 74 1019.2
20200404014001 31 154 1.0 2.0 0.00 0.00 0.01 74 1019.1
20200404012001 31 128 2.0 3.0 0.00 0.00 0.01 73 1019.2
20200404011002 31 109 3.0 5.0 0.00 0.00 0.01 74 1019.4
20200404005001 31 161 1.0 2.0 0.00 0.00 0.01 75 1019.3
20200404004000 31 103 3.0 5.0 0.00 0.00 0.01 74 1019.2
20200404003003 31 145 2.0 3.0 0.00 0.00 0.01 75 1019.3
20200404001002 31 116 4.0 8.0 0.00 0.00 0.01 74 1019.1
20200404000001 31 116 3.0 6.0 0.00 0.00 0.01 74 1019.1
20200403235001 32 145 3.0 7.0 0.00 0.00 0.01 74 1019.1
20200403232000 32 93 3.0 5.0 0.00 0.00 0.01 74 1019.1
20200403231000 32 74 3.0 7.0 0.00 0.00 0.01 74 1019.1
20200403230001 32 107 3.0 7.0 0.00 0.00 0.01 74 1019.1
20200403225002 32 88 4.0 8.0 0.00 0.00 0.01 73 1019.3
20200403224000 32 98 3.0 9.0 0.00 0.00 0.01 73 1019.3
20200403223000 33 66 3.0 8.0 0.00 0.00 0.01 73 1019.4
20200403221000 33 118 4.0 10.0 0.00 0.00 0.01 74 1019.7
20200403215001 33 97 3.0 8.0 0.00 0.00 0.01 73 1020.1
20200403213000 32 126 4.0 10.0 0.00 0.00 0.01 72 1020.4
20200403212001 32 106 4.0 7.0 0.00 0.00 0.01 73 1020.5